createdAt,value
2023-05-19T00:00:18.051Z,9.55
2023-05-19T00:01:18.066Z,9.56
2023-05-19T00:02:18.051Z,9.54
2023-05-19T00:03:18.167Z,9.54
2023-05-19T00:04:18.003Z,9.58
2023-05-19T00:05:18.027Z,9.56
2023-05-19T00:06:18.117Z,9.56
2023-05-19T00:07:17.993Z,9.56
2023-05-19T00:08:17.970Z,9.51
2023-05-19T00:09:17.966Z,9.54
2023-05-19T00:10:17.950Z,9.46
2023-05-19T00:11:17.966Z,9.54
2023-05-19T00:12:17.913Z,9.66
2023-05-19T00:13:17.943Z,9.72
2023-05-19T00:14:17.897Z,9.72
2023-05-19T00:15:17.955Z,9.69
2023-05-19T00:16:17.936Z,9.69
2023-05-19T00:17:17.896Z,9.77
2023-05-19T00:18:17.851Z,9.80
2023-05-19T00:19:17.959Z,9.79
2023-05-19T00:20:17.826Z,9.73
2023-05-19T00:21:17.861Z,9.77
2023-05-19T00:22:17.892Z,9.66
2023-05-19T00:23:17.842Z,9.55
2023-05-19T00:24:17.811Z,9.41
2023-05-19T00:25:17.820Z,9.29
2023-05-19T00:26:17.795Z,9.28
2023-05-19T00:27:17.802Z,9.32
2023-05-19T00:28:17.749Z,9.44
2023-05-19T00:29:17.775Z,9.54
2023-05-19T00:30:17.735Z,9.59
2023-05-19T00:31:17.915Z,9.54
2023-05-19T00:32:17.816Z,9.47
2023-05-19T00:33:17.711Z,9.48
2023-05-19T00:34:17.684Z,9.48
2023-05-19T00:35:17.719Z,9.47
2023-05-19T00:36:17.663Z,9.36
2023-05-19T00:37:17.677Z,9.34
2023-05-19T00:38:17.657Z,9.31
2023-05-19T00:39:17.692Z,9.22
2023-05-19T00:40:17.631Z,9.14
2023-05-19T00:41:17.673Z,9.02
2023-05-19T00:42:17.608Z,9.08
2023-05-19T00:43:17.633Z,9.14
2023-05-19T00:44:17.574Z,9.13
2023-05-19T00:45:17.596Z,9.08
2023-05-19T00:46:17.624Z,9.04
2023-05-19T00:47:17.594Z,9.03
2023-05-19T00:48:17.546Z,8.99
2023-05-19T00:49:17.568Z,9.03
2023-05-19T00:50:17.527Z,9.08
2023-05-19T00:51:17.528Z,9.04
2023-05-19T00:52:17.511Z,8.97
2023-05-19T00:53:17.525Z,8.97
2023-05-19T00:54:17.494Z,8.88
2023-05-19T00:55:17.496Z,8.78
2023-05-19T00:56:17.514Z,8.84
2023-05-19T00:57:17.736Z,8.87
2023-05-19T00:58:17.517Z,8.97
2023-05-19T00:59:17.454Z,9.03
2023-05-19T01:00:17.415Z,8.88
2023-05-19T01:01:17.604Z,8.91
2023-05-19T01:02:17.405Z,8.84
2023-05-19T01:03:17.564Z,8.71
2023-05-19T01:04:17.369Z,8.66
2023-05-19T01:05:17.366Z,8.71
2023-05-19T01:06:17.378Z,8.84
2023-05-19T01:07:17.343Z,8.87
2023-05-19T01:08:17.378Z,8.95
2023-05-19T01:09:17.350Z,8.91
2023-05-19T01:10:17.345Z,9.00
2023-05-19T01:11:17.317Z,8.82
2023-05-19T01:12:17.326Z,8.71
2023-05-19T01:13:17.279Z,8.64
2023-05-19T01:14:17.365Z,8.61
2023-05-19T01:15:17.253Z,8.67
2023-05-19T01:16:17.309Z,8.64
2023-05-19T01:17:17.264Z,8.61
2023-05-19T01:18:17.253Z,8.67
2023-05-19T01:19:17.252Z,8.70
2023-05-19T01:20:17.254Z,8.61
2023-05-19T01:21:17.207Z,8.55
2023-05-19T01:22:17.218Z,8.58
2023-05-19T01:23:17.173Z,8.64
2023-05-19T01:24:17.197Z,8.69
2023-05-19T01:25:17.172Z,8.74
2023-05-19T01:26:17.187Z,8.70
2023-05-19T01:27:17.130Z,8.67
2023-05-19T01:28:17.146Z,8.49
2023-05-19T01:29:17.111Z,8.44
2023-05-19T01:30:17.152Z,8.37
2023-05-19T01:31:17.102Z,8.34
2023-05-19T01:32:17.106Z,8.44
2023-05-19T01:33:17.072Z,8.36
2023-05-19T01:34:17.094Z,8.38
2023-05-19T01:35:17.081Z,8.45
2023-05-19T01:36:17.069Z,8.46
2023-05-19T01:37:17.047Z,8.44
2023-05-19T01:38:17.046Z,8.46
2023-05-19T01:39:17.018Z,8.55
2023-05-19T01:40:17.033Z,8.55
2023-05-19T01:41:17.025Z,8.64
2023-05-19T01:42:17.013Z,8.58
2023-05-19T01:43:16.973Z,8.61
2023-05-19T01:44:16.988Z,8.52
2023-05-19T01:45:16.956Z,8.60
2023-05-19T01:46:17.072Z,8.58
2023-05-19T01:47:16.961Z,8.55
2023-05-19T01:48:16.950Z,8.48
2023-05-19T01:49:16.923Z,8.45
2023-05-19T01:50:16.930Z,8.33
2023-05-19T01:51:16.890Z,8.20
2023-05-19T01:52:16.919Z,8.13
2023-05-19T01:53:16.905Z,8.03
2023-05-19T01:54:16.877Z,7.90
2023-05-19T01:55:16.854Z,7.76
2023-05-19T01:56:16.858Z,7.79
2023-05-19T01:57:16.831Z,7.87
2023-05-19T01:58:16.840Z,7.88
2023-05-19T01:59:16.849Z,7.77
2023-05-19T02:00:17.201Z,7.73
2023-05-19T02:01:16.805Z,7.61
2023-05-19T02:02:16.796Z,7.56
2023-05-19T02:03:16.785Z,7.60
2023-05-19T02:04:16.804Z,7.58
2023-05-19T02:05:16.761Z,7.56
2023-05-19T02:06:16.761Z,7.56
2023-05-19T02:07:16.719Z,7.53
2023-05-19T02:08:16.743Z,7.48
2023-05-19T02:09:16.717Z,7.50
2023-05-19T02:10:16.718Z,7.57
2023-05-19T02:11:16.696Z,7.70
2023-05-19T02:12:16.697Z,7.73
2023-05-19T02:13:16.669Z,7.79
2023-05-19T02:14:16.680Z,7.79
2023-05-19T02:15:16.651Z,7.79
2023-05-19T02:16:16.735Z,7.70
2023-05-19T02:17:16.639Z,7.60
2023-05-19T02:18:16.639Z,7.72
2023-05-19T02:19:16.634Z,7.77
2023-05-19T02:20:16.615Z,7.61
2023-05-19T02:21:16.576Z,7.79
2023-05-19T02:22:16.610Z,7.79
2023-05-19T02:23:16.566Z,7.73
2023-05-19T02:24:16.571Z,7.77
2023-05-19T02:25:16.553Z,7.87
2023-05-19T02:26:16.544Z,7.88
2023-05-19T02:27:16.517Z,7.93
2023-05-19T02:28:16.537Z,7.90
2023-05-19T02:29:16.535Z,7.80
2023-05-19T02:30:16.503Z,7.91
2023-05-19T02:31:16.469Z,7.95
2023-05-19T02:32:16.611Z,8.03
2023-05-19T02:33:16.455Z,8.00
2023-05-19T02:34:16.462Z,7.93
2023-05-19T02:35:16.443Z,7.83
2023-05-19T02:36:16.438Z,7.75
2023-05-19T02:37:16.434Z,7.76
2023-05-19T02:38:16.414Z,7.76
2023-05-19T02:39:16.404Z,7.69
2023-05-19T02:40:16.405Z,7.54
2023-05-19T02:41:16.382Z,7.57
2023-05-19T02:42:16.387Z,7.51
2023-05-19T02:43:16.344Z,7.56
2023-05-19T02:44:16.354Z,7.67
2023-05-19T02:45:16.319Z,7.56
2023-05-19T02:46:16.372Z,7.53
2023-05-19T02:47:16.343Z,7.47
2023-05-19T02:48:16.354Z,7.45
2023-05-19T02:49:16.288Z,7.40
2023-05-19T02:50:16.297Z,7.43
2023-05-19T02:51:16.260Z,7.36
2023-05-19T02:52:16.309Z,7.31
2023-05-19T02:53:16.277Z,7.15
2023-05-19T02:54:16.274Z,7.17
2023-05-19T02:55:16.218Z,7.21
2023-05-19T02:56:16.250Z,7.28
2023-05-19T02:57:16.217Z,7.31
2023-05-19T02:58:16.214Z,7.39
2023-05-19T02:59:16.194Z,7.35
2023-05-19T03:00:16.220Z,7.25
2023-05-19T03:01:16.219Z,7.07
2023-05-19T03:02:16.235Z,6.96
2023-05-19T03:03:16.281Z,6.87
2023-05-19T03:04:16.145Z,6.84
2023-05-19T03:05:16.140Z,6.81
2023-05-19T03:06:16.150Z,6.79
2023-05-19T03:07:16.109Z,6.88
2023-05-19T03:08:16.115Z,6.88
2023-05-19T03:09:16.079Z,6.84
2023-05-19T03:10:16.097Z,6.88
2023-05-19T03:11:16.065Z,6.82
2023-05-19T03:12:16.071Z,6.79
2023-05-19T03:13:16.034Z,6.84
2023-05-19T03:14:16.042Z,6.85
2023-05-19T03:15:16.034Z,6.81
2023-05-19T03:16:16.057Z,6.72
2023-05-19T03:17:16.073Z,6.63
2023-05-19T03:18:16.044Z,6.56
2023-05-19T03:19:16.000Z,6.56
2023-05-19T03:20:16.002Z,6.56
2023-05-19T03:21:15.959Z,6.66
2023-05-19T03:22:16.020Z,6.77
2023-05-19T03:23:15.955Z,6.82
2023-05-19T03:24:15.946Z,6.79
2023-05-19T03:25:15.933Z,6.82
2023-05-19T03:26:15.924Z,6.82
2023-05-19T03:27:15.890Z,6.96
2023-05-19T03:28:15.922Z,7.03
2023-05-19T03:29:15.905Z,6.96
2023-05-19T03:30:15.977Z,6.95
2023-05-19T03:31:15.852Z,7.07
2023-05-19T03:32:15.893Z,7.10
2023-05-19T03:33:16.040Z,7.23
2023-05-19T03:34:15.842Z,7.29
2023-05-19T03:35:15.852Z,7.23
2023-05-19T03:36:15.820Z,7.13
2023-05-19T03:37:15.799Z,7.07
2023-05-19T03:38:15.805Z,7.05
2023-05-19T03:39:15.765Z,6.99
2023-05-19T03:40:15.945Z,6.85
2023-05-19T03:41:16.284Z,6.60
2023-05-19T03:42:15.777Z,6.44
2023-05-19T03:43:15.745Z,6.35
2023-05-19T03:44:15.760Z,6.27
2023-05-19T03:45:15.710Z,6.26
2023-05-19T03:46:15.726Z,6.26
2023-05-19T03:47:15.712Z,6.36
2023-05-19T03:48:15.696Z,6.46
2023-05-19T03:49:15.672Z,6.54
2023-05-19T03:50:15.731Z,6.59
2023-05-19T03:51:15.643Z,6.70
2023-05-19T03:52:15.673Z,6.72
2023-05-19T03:53:15.666Z,6.66
2023-05-19T03:54:15.672Z,6.78
2023-05-19T03:55:15.608Z,6.85
2023-05-19T03:56:15.632Z,6.95
2023-05-19T03:57:15.605Z,6.93
2023-05-19T03:58:15.592Z,6.88
2023-05-19T03:59:15.638Z,6.92
2023-05-19T04:00:15.558Z,6.99
2023-05-19T04:01:15.580Z,7.10
2023-05-19T04:02:16.622Z,7.14
2023-05-19T04:03:15.577Z,7.14
2023-05-19T04:04:15.568Z,7.21
2023-05-19T04:05:15.562Z,7.25
2023-05-19T04:06:15.500Z,7.20
2023-05-19T04:07:15.497Z,7.18
2023-05-19T04:08:15.463Z,7.21
2023-05-19T04:09:15.478Z,7.21
2023-05-19T04:10:15.453Z,7.29
2023-05-19T04:11:15.474Z,7.28
2023-05-19T04:12:15.444Z,7.28
2023-05-19T04:13:15.438Z,7.25
2023-05-19T04:14:15.414Z,7.31
2023-05-19T04:15:15.441Z,7.28
2023-05-19T04:16:15.419Z,7.14
2023-05-19T04:17:15.419Z,7.05
2023-05-19T04:18:15.418Z,6.93
2023-05-19T04:19:15.422Z,6.87
2023-05-19T04:20:15.366Z,6.87
2023-05-19T04:21:15.364Z,6.95
2023-05-19T04:22:15.343Z,6.89
2023-05-19T04:23:15.385Z,6.95
2023-05-19T04:24:15.304Z,6.93
2023-05-19T04:25:15.320Z,6.96
2023-05-19T04:26:15.289Z,6.95
2023-05-19T04:27:15.305Z,7.03
2023-05-19T04:28:15.275Z,7.14
2023-05-19T04:29:15.293Z,7.18
2023-05-19T04:30:16.714Z,7.24
2023-05-19T04:31:15.361Z,7.28
2023-05-19T04:32:15.244Z,7.20
2023-05-19T04:33:15.234Z,7.21
2023-05-19T04:34:15.192Z,7.31
2023-05-19T04:35:15.246Z,7.32
2023-05-19T04:36:15.243Z,7.24
2023-05-19T04:37:15.195Z,7.24
2023-05-19T04:38:15.160Z,7.25
2023-05-19T04:39:15.179Z,7.25
2023-05-19T04:40:15.144Z,7.36
2023-05-19T04:41:15.246Z,7.40
2023-05-19T04:42:15.111Z,7.38
2023-05-19T04:43:15.133Z,7.35
2023-05-19T04:44:15.103Z,7.39
2023-05-19T04:45:15.117Z,7.38
2023-05-19T04:46:15.150Z,7.32
2023-05-19T04:47:15.110Z,7.25
2023-05-19T04:48:15.061Z,7.32
2023-05-19T04:49:15.079Z,7.32
2023-05-19T04:50:15.043Z,7.29
2023-05-19T04:51:15.055Z,7.29
2023-05-19T04:52:15.008Z,7.31
2023-05-19T04:53:15.053Z,7.32
2023-05-19T04:54:15.016Z,7.42
2023-05-19T04:55:15.028Z,7.58
2023-05-19T04:56:14.997Z,7.66
2023-05-19T04:57:14.982Z,7.72
2023-05-19T04:58:14.946Z,7.72
2023-05-19T04:59:15.004Z,7.73
2023-05-19T05:00:14.991Z,7.85
2023-05-19T05:01:14.956Z,7.94
2023-05-19T05:02:14.996Z,8.05
2023-05-19T05:03:15.060Z,8.10
2023-05-19T05:04:14.937Z,8.15
2023-05-19T05:05:14.926Z,8.18
2023-05-19T05:06:14.857Z,8.15
2023-05-19T05:07:14.899Z,8.31
2023-05-19T05:08:14.872Z,8.34
2023-05-19T05:09:14.862Z,8.33
2023-05-19T05:10:14.835Z,8.33
2023-05-19T05:11:14.850Z,8.31
2023-05-19T05:12:14.798Z,8.33
2023-05-19T05:13:14.809Z,8.34
2023-05-19T05:14:14.780Z,8.44
2023-05-19T05:15:14.825Z,8.56
2023-05-19T05:16:14.824Z,8.74
2023-05-19T05:17:14.792Z,8.88
2023-05-19T05:18:14.730Z,9.13
2023-05-19T05:19:14.834Z,9.28
2023-05-19T05:20:14.723Z,9.51
2023-05-19T05:21:14.709Z,9.69
2023-05-19T05:22:14.720Z,9.86
2023-05-19T05:23:14.744Z,10.02
2023-05-19T05:24:14.706Z,10.25
2023-05-19T05:25:14.660Z,10.57
2023-05-19T05:26:14.675Z,10.79
2023-05-19T05:27:14.644Z,11.22
2023-05-19T05:28:14.665Z,11.35
2023-05-19T05:29:14.636Z,11.50
2023-05-19T05:30:14.637Z,11.57
2023-05-19T05:31:14.605Z,11.81
2023-05-19T05:32:14.650Z,11.95
2023-05-19T05:33:14.738Z,12.09
2023-05-19T05:34:14.591Z,12.28
2023-05-19T05:35:14.577Z,12.49
2023-05-19T05:36:14.581Z,12.64
2023-05-19T05:37:15.304Z,12.87
2023-05-19T05:38:14.543Z,13.11
2023-05-19T05:39:14.523Z,13.23
2023-05-19T05:40:14.548Z,13.23
2023-05-19T05:41:14.523Z,13.30
2023-05-19T05:42:14.509Z,13.27
2023-05-19T05:43:14.475Z,13.22
2023-05-19T05:44:14.519Z,13.31
2023-05-19T05:45:14.451Z,13.31
2023-05-19T05:46:14.498Z,13.35
2023-05-19T05:47:14.455Z,13.41
2023-05-19T05:48:14.521Z,13.47
2023-05-19T05:49:14.415Z,13.50
2023-05-19T05:50:14.415Z,13.38
2023-05-19T05:51:14.398Z,13.38
2023-05-19T05:52:14.400Z,13.35
2023-05-19T05:53:14.392Z,13.38
2023-05-19T05:54:14.382Z,13.41
2023-05-19T05:55:14.347Z,13.39
2023-05-19T05:56:14.366Z,13.35
2023-05-19T05:57:14.328Z,13.33
2023-05-19T05:58:14.350Z,13.28
2023-05-19T05:59:14.328Z,13.28
2023-05-19T06:00:14.316Z,13.25
2023-05-19T06:01:14.304Z,13.41
2023-05-19T06:02:14.394Z,13.57
2023-05-19T06:03:14.385Z,13.74
2023-05-19T06:04:14.285Z,13.93
2023-05-19T06:05:14.343Z,14.03
2023-05-19T06:06:14.268Z,14.04
2023-05-19T06:07:14.260Z,14.14
2023-05-19T06:08:14.258Z,14.23
2023-05-19T06:09:14.199Z,14.32
2023-05-19T06:10:14.208Z,14.26
2023-05-19T06:11:14.227Z,14.15
2023-05-19T06:12:14.202Z,14.07
2023-05-19T06:13:14.167Z,14.05
2023-05-19T06:14:14.195Z,13.95
2023-05-19T06:15:14.152Z,13.97
2023-05-19T06:16:14.186Z,13.93
2023-05-19T06:17:14.143Z,13.93
2023-05-19T06:18:14.175Z,13.87
2023-05-19T06:19:14.140Z,13.72
2023-05-19T06:20:14.115Z,13.59
2023-05-19T06:21:14.070Z,13.50
2023-05-19T06:22:14.079Z,13.42
2023-05-19T06:23:14.081Z,13.39
2023-05-19T06:24:14.072Z,13.39
2023-05-19T06:25:14.044Z,13.39
2023-05-19T06:26:14.065Z,13.44
2023-05-19T06:27:14.016Z,13.44
2023-05-19T06:28:14.028Z,13.53
2023-05-19T06:29:14.012Z,13.65
2023-05-19T06:30:14.041Z,13.72
2023-05-19T06:31:14.022Z,13.83
2023-05-19T06:32:13.985Z,13.87
2023-05-19T06:33:13.965Z,13.79
2023-05-19T06:34:13.960Z,13.81
2023-05-19T06:35:13.939Z,13.89
2023-05-19T06:36:13.946Z,13.97
2023-05-19T06:37:13.904Z,14.04
2023-05-19T06:38:13.930Z,14.22
2023-05-19T06:39:13.897Z,14.51
2023-05-19T06:40:13.943Z,14.68
2023-05-19T06:41:13.892Z,14.89
2023-05-19T06:42:13.880Z,14.97
2023-05-19T06:43:13.842Z,15.03
2023-05-19T06:44:13.871Z,15.14
2023-05-19T06:45:13.830Z,15.35
2023-05-19T06:46:13.868Z,15.43
2023-05-19T06:47:13.931Z,15.55
2023-05-19T06:48:13.862Z,15.54
2023-05-19T06:49:13.781Z,15.64
2023-05-19T06:50:13.820Z,15.67
2023-05-19T06:51:13.775Z,15.82
2023-05-19T06:52:13.774Z,15.86
2023-05-19T06:53:13.767Z,15.92
2023-05-19T06:54:13.755Z,15.84
2023-05-19T06:55:13.746Z,15.90
2023-05-19T06:56:13.742Z,15.94
2023-05-19T06:57:13.692Z,16.00
2023-05-19T06:58:13.718Z,15.91
2023-05-19T06:59:13.691Z,15.95
2023-05-19T07:00:16.097Z,15.98
2023-05-19T07:01:13.700Z,16.05
2023-05-19T07:02:13.738Z,16.21
2023-05-19T07:03:13.671Z,16.28
2023-05-19T07:04:13.751Z,16.33
2023-05-19T07:05:13.786Z,16.24
2023-05-19T07:06:13.618Z,16.23
2023-05-19T07:07:13.595Z,16.24
2023-05-19T07:08:13.598Z,16.31
2023-05-19T07:09:13.586Z,16.46
2023-05-19T07:10:13.581Z,16.56
2023-05-19T07:11:13.564Z,16.69
2023-05-19T07:12:13.555Z,16.74
2023-05-19T07:13:13.525Z,16.81
2023-05-19T07:14:13.565Z,16.84
2023-05-19T07:15:13.509Z,16.76
2023-05-19T07:16:13.578Z,16.74
2023-05-19T07:17:13.577Z,16.83
2023-05-19T07:18:13.560Z,16.91
2023-05-19T07:19:13.535Z,16.99
2023-05-19T07:20:13.478Z,16.94
2023-05-19T07:21:13.478Z,17.04
2023-05-19T07:22:13.450Z,17.19
2023-05-19T07:23:13.910Z,17.33
2023-05-19T07:24:13.450Z,17.38
2023-05-19T07:25:13.413Z,17.44
2023-05-19T07:26:13.403Z,17.42
2023-05-19T07:27:13.375Z,17.51
2023-05-19T07:28:13.381Z,17.59
2023-05-19T07:29:13.370Z,17.70
2023-05-19T07:30:13.366Z,17.80
2023-05-19T07:31:13.336Z,17.85
2023-05-19T07:32:13.478Z,17.76
2023-05-19T07:33:13.396Z,17.80
2023-05-19T07:34:13.321Z,17.87
2023-05-19T07:35:13.537Z,17.85
2023-05-19T07:36:13.315Z,17.95
2023-05-19T07:37:13.278Z,18.08
2023-05-19T07:38:13.293Z,18.20
2023-05-19T07:39:13.306Z,18.29
2023-05-19T07:40:13.264Z,18.34
2023-05-19T07:41:13.235Z,18.37
2023-05-19T07:42:13.257Z,18.38
2023-05-19T07:43:13.200Z,18.29
2023-05-19T07:44:13.233Z,18.35
2023-05-19T07:45:13.172Z,18.50
2023-05-19T07:46:13.292Z,18.49
2023-05-19T07:47:13.179Z,18.58
2023-05-19T07:48:13.211Z,18.63
2023-05-19T07:49:13.159Z,18.68
2023-05-19T07:50:13.159Z,18.75
2023-05-19T07:51:13.119Z,18.83
2023-05-19T07:52:13.153Z,18.81
2023-05-19T07:53:13.113Z,19.02
2023-05-19T07:54:13.109Z,19.16
2023-05-19T07:55:13.080Z,19.18
2023-05-19T07:56:13.084Z,19.09
2023-05-19T07:57:13.050Z,19.12
2023-05-19T07:58:13.054Z,19.08
2023-05-19T07:59:13.072Z,19.14
2023-05-19T08:00:13.072Z,19.16
2023-05-19T08:01:13.027Z,19.18
2023-05-19T08:02:13.154Z,19.29
2023-05-19T08:03:13.218Z,19.34
2023-05-19T08:04:13.346Z,19.37
2023-05-19T08:05:12.992Z,19.52
2023-05-19T08:06:12.976Z,19.70
2023-05-19T08:07:12.968Z,19.70
2023-05-19T08:08:12.953Z,19.52
2023-05-19T08:09:12.934Z,19.56
2023-05-19T08:10:12.939Z,19.63
2023-05-19T08:11:12.937Z,19.62
2023-05-19T08:12:12.923Z,19.70
2023-05-19T08:13:12.886Z,19.81
2023-05-19T08:14:12.906Z,19.82
2023-05-19T08:15:12.875Z,19.74
2023-05-19T08:16:12.933Z,19.44
2023-05-19T08:17:12.879Z,19.30
2023-05-19T08:18:12.933Z,19.27
2023-05-19T08:19:12.892Z,19.40
2023-05-19T08:20:12.852Z,19.58
2023-05-19T08:21:12.805Z,19.64
2023-05-19T08:22:12.827Z,19.81
2023-05-19T08:23:12.829Z,19.76
2023-05-19T08:24:12.794Z,19.55
2023-05-19T08:25:12.759Z,19.48
2023-05-19T08:26:12.774Z,19.67
2023-05-19T08:27:12.746Z,19.86
2023-05-19T08:28:12.759Z,20.00
2023-05-19T08:29:12.743Z,20.19
2023-05-19T08:30:12.745Z,20.29
2023-05-19T08:31:12.799Z,20.28
2023-05-19T08:32:13.462Z,20.14
2023-05-19T08:33:12.737Z,20.02
2023-05-19T08:34:12.696Z,20.11
2023-05-19T08:35:12.665Z,19.95
2023-05-19T08:36:12.690Z,19.86
2023-05-19T08:37:12.644Z,20.14
2023-05-19T08:38:12.650Z,20.43
2023-05-19T08:39:12.618Z,20.66
2023-05-19T08:40:12.643Z,20.88
2023-05-19T08:41:12.626Z,21.12
2023-05-19T08:42:12.604Z,21.21
2023-05-19T08:43:12.583Z,21.22
2023-05-19T08:44:12.604Z,21.35
2023-05-19T08:45:12.560Z,21.58
2023-05-19T08:46:12.621Z,21.73
2023-05-19T08:47:12.837Z,21.33
2023-05-19T08:48:12.583Z,20.95
2023-05-19T08:49:12.509Z,20.47
2023-05-19T08:50:12.527Z,20.65
2023-05-19T08:51:12.519Z,21.06
2023-05-19T08:52:12.502Z,21.40
2023-05-19T08:53:24.696Z,21.45
2023-05-19T08:54:12.564Z,21.30
2023-05-19T08:55:12.459Z,20.88
2023-05-19T08:56:12.461Z,20.19
2023-05-19T08:57:12.432Z,20.59
2023-05-19T08:58:12.451Z,20.44
2023-05-19T08:59:12.435Z,20.44
2023-05-19T09:00:12.410Z,20.66
2023-05-19T09:01:12.433Z,20.81
2023-05-19T09:02:12.405Z,21.37
2023-05-19T09:04:12.424Z,22.15
2023-05-19T09:05:12.386Z,22.43
2023-05-19T09:06:12.364Z,22.73
2023-05-19T09:07:12.328Z,23.12
2023-05-19T09:08:12.332Z,23.05
2023-05-19T09:09:12.312Z,23.21
2023-05-19T09:10:12.332Z,23.56
2023-05-19T09:11:12.343Z,23.68
2023-05-19T09:12:12.303Z,23.65
2023-05-19T09:13:12.285Z,23.69
2023-05-19T09:14:12.277Z,23.73
2023-05-19T09:15:12.238Z,23.71
2023-05-19T09:16:12.358Z,23.84
2023-05-19T09:17:12.288Z,23.98
2023-05-19T09:18:12.309Z,24.23
2023-05-19T09:19:12.248Z,24.47
2023-05-19T09:20:12.224Z,24.43
2023-05-19T09:21:12.172Z,24.58
2023-05-19T09:22:12.193Z,24.48
2023-05-19T09:23:12.185Z,24.29
2023-05-19T09:24:12.170Z,23.96
2023-05-19T09:25:12.138Z,24.11
2023-05-19T09:26:12.157Z,24.48
2023-05-19T09:27:12.118Z,24.70
2023-05-19T09:28:12.134Z,25.06
2023-05-19T09:29:12.135Z,25.25
2023-05-19T09:30:12.135Z,25.07
2023-05-19T09:31:12.085Z,25.06
2023-05-19T09:32:12.128Z,25.18
2023-05-19T09:33:12.124Z,25.43
2023-05-19T09:34:12.068Z,25.46
2023-05-19T09:35:12.070Z,25.50
2023-05-19T09:36:12.053Z,25.75
2023-05-19T09:37:12.042Z,25.68
2023-05-19T09:38:12.025Z,25.44
2023-05-19T09:39:12.020Z,25.07
2023-05-19T09:40:13.088Z,25.32
2023-05-19T09:41:12.013Z,25.55
2023-05-19T09:42:11.967Z,25.63
2023-05-19T09:43:11.982Z,25.75
2023-05-19T09:44:11.946Z,25.44
2023-05-19T09:45:11.970Z,25.31
2023-05-19T09:46:13.723Z,25.28
2023-05-19T09:47:11.951Z,25.43
2023-05-19T09:48:11.916Z,25.44
2023-05-19T09:49:11.916Z,24.99
2023-05-19T09:50:11.885Z,24.57
2023-05-19T09:51:11.922Z,24.93
2023-05-19T09:52:12.727Z,25.03
2023-05-19T09:53:11.899Z,24.85
2023-05-19T09:54:11.849Z,24.10
2023-05-19T09:55:11.904Z,24.32
2023-05-19T09:56:11.820Z,24.76
2023-05-19T09:57:11.842Z,24.86
2023-05-19T09:58:12.708Z,25.03
2023-05-19T09:59:11.838Z,25.26
2023-05-19T10:00:11.797Z,25.40
2023-05-19T10:01:11.837Z,25.47
2023-05-19T10:02:11.759Z,25.78
2023-05-19T10:03:11.825Z,25.75
2023-05-19T10:04:11.742Z,25.70
2023-05-19T10:05:11.824Z,25.29
2023-05-19T10:06:11.732Z,25.25
2023-05-19T10:07:11.744Z,25.41
2023-05-19T10:08:11.710Z,25.41
2023-05-19T10:09:11.716Z,25.41
2023-05-19T10:10:11.686Z,25.35
2023-05-19T10:11:11.714Z,25.59
2023-05-19T10:12:11.665Z,25.60
2023-05-19T10:13:11.674Z,25.60
2023-05-19T10:14:11.718Z,25.55
2023-05-19T10:15:11.838Z,26.00
2023-05-19T10:16:11.680Z,25.84
2023-05-19T10:17:11.657Z,24.95
2023-05-19T10:18:11.629Z,24.73
2023-05-19T10:19:11.667Z,24.73
2023-05-19T10:20:11.586Z,25.10
2023-05-19T10:21:11.619Z,25.48
2023-05-19T10:22:11.584Z,25.70
2023-05-19T10:23:11.589Z,26.00
2023-05-19T10:24:13.316Z,26.05
2023-05-19T10:25:11.577Z,26.03
2023-05-19T10:26:11.553Z,26.41
2023-05-19T10:27:11.535Z,26.51
2023-05-19T10:28:11.516Z,26.38
2023-05-19T10:29:11.714Z,26.23
2023-05-19T10:30:12.771Z,26.06
2023-05-19T10:31:11.500Z,25.59
2023-05-19T10:32:11.686Z,25.11
2023-05-19T10:33:11.523Z,25.01
2023-05-19T10:34:11.442Z,25.35
2023-05-19T10:35:11.488Z,25.22
2023-05-19T10:36:11.438Z,25.36
2023-05-19T10:37:11.447Z,25.54
2023-05-19T10:38:11.412Z,25.88
2023-05-19T10:39:11.414Z,26.00
2023-05-19T10:40:11.390Z,26.31
2023-05-19T10:41:11.427Z,26.13
2023-05-19T10:42:11.384Z,26.31
2023-05-19T10:43:11.413Z,26.66
2023-05-19T10:44:11.341Z,26.92
2023-05-19T10:45:11.399Z,27.36
2023-05-19T10:46:11.336Z,27.40
2023-05-19T10:47:12.794Z,27.08
2023-05-19T10:48:11.365Z,26.92
2023-05-19T10:49:11.346Z,26.70
2023-05-19T10:50:11.275Z,26.78
2023-05-19T10:51:11.323Z,26.88
2023-05-19T10:52:11.272Z,26.81
2023-05-19T10:53:11.299Z,27.02
2023-05-19T10:54:12.271Z,27.15
2023-05-19T10:55:11.260Z,27.39
2023-05-19T10:56:11.215Z,27.45
2023-05-19T10:57:11.236Z,27.02
2023-05-19T10:58:11.197Z,26.63
2023-05-19T10:59:11.227Z,26.55
2023-05-19T11:00:11.181Z,26.78
2023-05-19T11:01:11.229Z,26.95
2023-05-19T11:02:11.202Z,26.95
2023-05-19T11:03:11.264Z,26.75
2023-05-19T11:04:11.401Z,26.55
2023-05-19T11:05:11.206Z,26.70
2023-05-19T11:06:11.125Z,26.85
2023-05-19T11:07:11.130Z,26.59
2023-05-19T11:08:11.096Z,26.15
2023-05-19T11:09:11.122Z,26.02
2023-05-19T11:10:11.083Z,25.70
2023-05-19T11:11:11.120Z,25.26
2023-05-19T11:12:11.057Z,25.36
2023-05-19T11:13:11.071Z,25.08
2023-05-19T11:14:11.091Z,24.76
2023-05-19T11:15:11.075Z,24.93
2023-05-19T11:16:11.066Z,25.08
2023-05-19T11:17:11.365Z,25.26
2023-05-19T11:18:11.016Z,25.60
2023-05-19T11:19:11.045Z,25.78
2023-05-19T11:20:10.987Z,26.13
2023-05-19T11:21:11.978Z,26.28
2023-05-19T11:22:10.961Z,26.23
2023-05-19T11:23:11.080Z,26.38
2023-05-19T11:24:10.972Z,26.53
2023-05-19T11:25:10.946Z,26.45
2023-05-19T11:26:10.934Z,25.91
2023-05-19T11:27:10.945Z,25.62
2023-05-19T11:28:10.889Z,25.69
2023-05-19T11:29:10.931Z,25.62
2023-05-19T11:30:10.884Z,25.41
2023-05-19T11:31:11.122Z,25.44
2023-05-19T11:32:11.075Z,25.54
2023-05-19T11:33:11.187Z,25.47
2023-05-19T11:34:10.827Z,25.13
2023-05-19T11:35:10.887Z,25.14
2023-05-19T11:36:10.812Z,25.33
2023-05-19T11:37:10.831Z,25.54
2023-05-19T11:38:10.791Z,25.48
2023-05-19T11:39:10.803Z,25.26
2023-05-19T11:40:10.772Z,24.76
2023-05-19T11:41:10.810Z,24.77
2023-05-19T11:42:10.758Z,24.98
2023-05-19T11:43:10.784Z,25.11
2023-05-19T11:44:10.734Z,25.22
2023-05-19T11:45:10.746Z,25.38
2023-05-19T11:46:10.770Z,25.43
2023-05-19T11:47:10.736Z,25.63
2023-05-19T11:48:10.712Z,25.85
2023-05-19T11:49:10.722Z,25.91
2023-05-19T11:50:10.665Z,26.25
2023-05-19T11:51:10.680Z,26.48
2023-05-19T11:52:10.657Z,26.51
2023-05-19T11:53:10.712Z,26.16
2023-05-19T11:54:10.638Z,26.18
2023-05-19T11:55:10.637Z,25.88
2023-05-19T11:56:10.621Z,25.72
2023-05-19T11:57:10.631Z,25.35
2023-05-19T11:58:10.593Z,25.32
2023-05-19T11:59:10.658Z,25.43
2023-05-19T12:00:10.575Z,25.75
2023-05-19T12:01:10.592Z,25.93
2023-05-19T12:02:10.592Z,26.02
2023-05-19T12:03:10.859Z,26.05
2023-05-19T12:04:10.586Z,26.33
2023-05-19T12:05:10.627Z,26.41
2023-05-19T12:06:10.583Z,26.53
2023-05-19T12:07:10.527Z,26.74
2023-05-19T12:08:10.529Z,26.62
2023-05-19T12:09:10.510Z,26.05
2023-05-19T12:10:10.577Z,26.06
2023-05-19T12:11:10.487Z,26.23
2023-05-19T12:12:10.450Z,26.48
2023-05-19T12:13:10.814Z,26.40
2023-05-19T12:14:10.460Z,26.18
2023-05-19T12:15:10.438Z,25.68
2023-05-19T12:16:10.448Z,25.58
2023-05-19T12:17:10.440Z,25.87
2023-05-19T12:18:10.428Z,26.16
2023-05-19T12:19:10.464Z,26.40
2023-05-19T12:20:10.460Z,26.52
2023-05-19T12:21:10.373Z,26.65
2023-05-19T12:22:10.343Z,26.65
2023-05-19T12:23:10.392Z,26.58
2023-05-19T12:24:10.322Z,26.52
2023-05-19T12:25:10.336Z,26.51
2023-05-19T12:26:10.334Z,26.52
2023-05-19T12:27:10.314Z,26.89
2023-05-19T12:28:10.284Z,26.63
2023-05-19T12:29:10.323Z,26.80
2023-05-19T12:30:10.280Z,26.95
2023-05-19T12:31:10.310Z,26.90
2023-05-19T12:32:10.363Z,26.34
2023-05-19T12:33:10.278Z,26.29
2023-05-19T12:34:10.214Z,26.37
2023-05-19T12:35:10.254Z,26.43
2023-05-19T12:36:10.223Z,26.65
2023-05-19T12:37:10.230Z,26.84
2023-05-19T12:38:10.178Z,26.88
2023-05-19T12:39:10.201Z,26.95
2023-05-19T12:40:10.267Z,26.92
2023-05-19T12:41:10.216Z,26.78
2023-05-19T12:42:10.143Z,26.66
2023-05-19T12:43:10.165Z,26.48
2023-05-19T12:44:10.138Z,26.62
2023-05-19T12:45:10.128Z,26.84
2023-05-19T12:46:10.136Z,26.88
2023-05-19T12:47:10.142Z,26.62
2023-05-19T12:48:10.115Z,26.37
2023-05-19T12:49:10.101Z,26.36
2023-05-19T12:50:10.356Z,26.52
2023-05-19T12:51:10.069Z,25.87
2023-05-19T12:52:12.741Z,24.73
2023-05-19T12:53:10.077Z,24.40
2023-05-19T12:54:10.042Z,24.20
2023-05-19T12:55:10.272Z,24.14
2023-05-19T12:56:10.002Z,24.35
2023-05-19T12:57:09.999Z,24.66
2023-05-19T12:58:09.993Z,24.66
2023-05-19T12:59:09.999Z,24.91
2023-05-19T13:00:10.064Z,25.17
2023-05-19T13:01:10.002Z,25.46
2023-05-19T13:02:10.046Z,25.62
2023-05-19T13:03:10.062Z,25.93
2023-05-19T13:04:10.014Z,26.03